Rechercher aéroport 
image banner adimage banner adimage banner ad
image banner ad

P15 - Brokenstraw

Situé à Pittsfield, United States

ICAO - P15, IATA -

Données fournies par Airmate  

Information générale

Coordonnées: N41°49'59" W79°21'38"
Élévation : 1230 feet MSL.
Variation magnétique : -09° East
Voir autres Aéroports à Pennsylvania

Données opérationnelles

Special qualification required
Heure actuelle UTC:
Heure actuelle locale:
Météo à : KJHW - Chautauqua County/Jamestown ( 37 km )
METAR: KJHW 131956Z AUTO VRB06KT 10SM SCT034 SCT080 26/18 A2987 RMK AO2 SLP110 T02610183
TAF: KJHW 131732Z 1318/1418 VRB04KT P6SM BKN040 FM132000 31010KT P6SM SCT060 FM140000 VRB04KT P6SM SCT250 FM141400 30008KT P6SM VCSH BKN050 FM141500 31009KT 6SM BR VCSH OVC040
Voir NOTAMs / SUP AIP / TFR affectant cet aéroport [VIEW]
Fréquences de communication: [VIEW]

Pistes:

Identifiant RWYQFULongueur (ft)Largeur (ft)SurfaceLDA (ft)
0973°3650100GRASS
27253°3650100GRASS

Coordonnées de l'aéroport

Adresse: Pittsfield United States

Vue satellite de P15